ケアンズ の空港の天気 - METARとTAF

ケアンズ国際空港 ( YBCS / CNS ) - オーストラリア クイーンズランド州ケアンズ
飛行場実況気象(Metar)
観測時間04/22 02:30 AEST (04/21 16:30 UTC)
風向・風速南南東 4m/s
視程10km以上
天気現象
全天を覆う雲 雲底高度 3350m
気温25℃
湿度83%
気圧1012hPa
METARYBCS 211630Z AUTO 16008KT 9999 // OVC110 25/22 Q1012 RMK RF00.0/000.0 NOSIG
過去の天気等 Google飛行場航空写真 Wunderground天気予報

過去48時間のMETAR

飛行場予報(TAF)
発表時間: 4/21 21:18 AEST (4/21 11:18 UTC)
予報対象時間: 21日21時 AEST ~ 22日22時 AEST
風向・風速南南東 4m/s
視程10km以上
天気現象弱いしゅう雨
全天の4割程度の雲 雲底高度 670m
全天の4割程度の雲 雲底高度 1220m
22日12時 AEST から
風向・風速南東 7m/s
視程10km以上
少しの雲 雲底高度 910m
22日18時 AEST から
風向・風速南南東 4m/s
視程10km以上
天気現象弱いしゅう雨
全天の4割程度の雲 雲底高度 670m
全天の4割程度の雲 雲底高度 1220m
TAF AMD YBCS 211118Z 2111/2212 15008KT 9999 -SHRA SCT022 SCT040
FM220200 13013KT 9999 FEW030
FM220800 15008KT 9999 -SHRA SCT022 SCT040 INTER 2111/2124 5000 SHRA BKN018